createdAt,value
2022-09-25T00:01:17.507Z,18.90
2022-09-25T00:03:43.971Z,18.05
2022-09-25T00:06:14.970Z,16.75
2022-09-25T00:08:41.557Z,16.75
2022-09-25T00:11:09.144Z,16.50
2022-09-25T00:13:35.779Z,16.35
2022-09-25T00:16:03.072Z,16.25
2022-09-25T00:18:48.736Z,15.65
2022-09-25T00:21:17.039Z,16.70
2022-09-25T00:23:47.183Z,15.32
2022-09-25T00:26:14.954Z,15.30
2022-09-25T00:28:41.822Z,14.95
2022-09-25T00:31:09.549Z,15.70
2022-09-25T00:33:36.241Z,14.30
2022-09-25T00:36:06.843Z,14.95
2022-09-25T00:38:34.148Z,14.40
2022-09-25T00:41:01.095Z,15.13
2022-09-25T00:43:37.878Z,14.63
2022-09-25T00:46:07.756Z,13.63
2022-09-25T00:48:34.212Z,14.38
2022-09-25T00:51:01.071Z,12.98
2022-09-25T00:53:31.274Z,13.63
2022-09-25T00:55:59.426Z,13.38
2022-09-25T00:58:26.560Z,13.88
2022-09-25T01:00:53.234Z,12.93
2022-09-25T01:03:20.658Z,12.63
2022-09-25T01:05:47.454Z,13.07
2022-09-25T01:08:21.363Z,12.65
2022-09-25T01:10:47.825Z,11.88
2022-09-25T01:13:15.497Z,11.30
2022-09-25T01:15:41.853Z,11.13
2022-09-25T01:18:08.442Z,10.30
2022-09-25T01:20:59.936Z,10.00
2022-09-25T01:23:38.990Z,10.75
2022-09-25T01:26:11.452Z,8.63
2022-09-25T01:28:47.785Z,9.07
2022-09-25T01:31:29.670Z,8.55
2022-09-25T01:34:00.317Z,7.55
2022-09-25T01:36:35.925Z,6.53
2022-09-25T01:39:10.969Z,6.43
2022-09-25T01:41:46.347Z,7.47
2022-09-25T01:44:15.053Z,6.82
2022-09-25T01:46:44.141Z,5.95
2022-09-25T01:49:20.018Z,6.25
2022-09-25T01:51:49.785Z,5.70
2022-09-25T01:54:18.780Z,5.50
2022-09-25T01:56:57.449Z,5.38
2022-09-25T01:59:35.850Z,4.18
2022-09-25T02:02:05.670Z,4.22
2022-09-25T02:04:35.134Z,4.30
2022-09-25T02:07:03.973Z,4.63
2022-09-25T02:09:48.923Z,4.80
2022-09-25T02:12:18.797Z,4.20
2022-09-25T02:14:49.187Z,5.03
2022-09-25T02:17:38.536Z,5.78
2022-09-25T02:20:27.031Z,5.18
2022-09-25T02:22:55.509Z,4.68
2022-09-25T02:25:26.875Z,4.35
2022-09-25T02:27:53.797Z,5.35
2022-09-25T02:30:20.396Z,6.47
2022-09-25T02:32:46.852Z,5.88
2022-09-25T02:35:13.321Z,6.47
2022-09-25T02:37:39.690Z,7.00
2022-09-25T02:40:06.242Z,7.20
2022-09-25T02:42:52.887Z,7.55
2022-09-25T02:45:36.536Z,8.48
2022-09-25T02:48:03.073Z,8.23
2022-09-25T02:50:44.751Z,7.85
2022-09-25T02:53:17.210Z,8.23
2022-09-25T02:55:43.568Z,7.68
2022-09-25T02:58:10.018Z,7.72
2022-09-25T03:00:37.608Z,8.18
2022-09-25T03:03:06.171Z,7.65
2022-09-25T03:05:33.149Z,6.30
2022-09-25T03:08:18.323Z,6.22
2022-09-25T03:10:46.507Z,6.60
2022-09-25T03:13:18.940Z,5.55
2022-09-25T03:15:48.679Z,5.85
2022-09-25T03:18:15.240Z,5.60
2022-09-25T03:20:41.736Z,5.32
2022-09-25T03:23:08.180Z,4.80
2022-09-25T03:25:34.621Z,5.28
2022-09-25T03:28:01.138Z,3.88
2022-09-25T03:30:29.266Z,4.63
2022-09-25T03:32:55.987Z,4.00
2022-09-25T03:35:22.923Z,3.90
2022-09-25T03:37:49.693Z,4.00
2022-09-25T03:40:16.358Z,3.42
2022-09-25T03:42:43.223Z,3.83
2022-09-25T03:45:11.465Z,3.50
2022-09-25T03:47:38.247Z,4.00
2022-09-25T03:50:04.808Z,4.10
2022-09-25T03:52:31.731Z,3.33
2022-09-25T03:54:58.184Z,4.28
2022-09-25T03:57:25.849Z,3.90
2022-09-25T03:59:52.524Z,3.80
2022-09-25T04:02:19.555Z,4.55
2022-09-25T04:04:46.029Z,3.20
2022-09-25T04:07:12.713Z,3.95
2022-09-25T04:09:39.143Z,3.10
2022-09-25T04:12:07.216Z,3.35
2022-09-25T04:14:33.604Z,3.35
2022-09-25T04:17:00.062Z,2.90
2022-09-25T04:19:26.449Z,3.17
2022-09-25T04:21:52.909Z,2.47
2022-09-25T04:24:38.090Z,2.88
2022-09-25T04:27:04.504Z,3.10
2022-09-25T04:29:32.224Z,2.80
2022-09-25T04:32:17.647Z,3.15
2022-09-25T04:34:44.051Z,3.30
2022-09-25T04:37:10.509Z,3.40
2022-09-25T04:39:36.935Z,2.90
2022-09-25T04:42:03.623Z,3.50
2022-09-25T04:44:31.110Z,3.15
2022-09-25T04:46:57.553Z,3.30
2022-09-25T04:49:24.025Z,3.45
2022-09-25T04:51:50.439Z,4.03
2022-09-25T04:54:17.201Z,3.65
2022-09-25T04:56:43.936Z,3.47
2022-09-25T04:59:16.780Z,3.30
2022-09-25T05:01:43.272Z,3.45
2022-09-25T05:04:10.093Z,3.78
2022-09-25T05:06:36.603Z,3.65
2022-09-25T05:09:03.274Z,3.88
2022-09-25T05:11:29.665Z,3.90
2022-09-25T05:13:56.058Z,3.47
2022-09-25T05:16:22.508Z,3.10
2022-09-25T05:18:48.977Z,3.63
2022-09-25T05:21:15.393Z,3.50
2022-09-25T05:23:41.774Z,3.75
2022-09-25T05:26:09.431Z,3.20
2022-09-25T05:28:35.847Z,3.63
2022-09-25T05:31:03.672Z,3.67
2022-09-25T05:33:31.174Z,3.22
2022-09-25T05:36:05.674Z,3.78
2022-09-25T05:38:33.195Z,4.30
2022-09-25T05:41:04.748Z,4.00
2022-09-25T05:43:33.318Z,3.45
2022-09-25T05:46:00.196Z,4.10
2022-09-25T05:48:26.737Z,3.83
2022-09-25T05:50:53.735Z,4.75
2022-09-25T05:53:20.180Z,4.03
2022-09-25T05:55:53.686Z,4.53
2022-09-25T05:58:20.883Z,4.45
2022-09-25T06:00:47.760Z,3.90
2022-09-25T06:03:14.794Z,4.07
2022-09-25T06:05:41.219Z,3.33
2022-09-25T06:08:08.150Z,3.70
2022-09-25T06:10:35.234Z,4.03
2022-09-25T06:13:02.874Z,3.63
2022-09-25T06:15:30.196Z,4.30
2022-09-25T06:17:56.651Z,3.20
2022-09-25T06:20:23.446Z,3.55
2022-09-25T06:22:56.392Z,3.85
2022-09-25T06:25:26.526Z,3.00
2022-09-25T06:27:54.182Z,3.13
2022-09-25T06:30:21.950Z,3.55
2022-09-25T06:32:49.332Z,3.20
2022-09-25T06:35:15.974Z,3.33
2022-09-25T06:37:42.428Z,2.90
2022-09-25T06:40:09.157Z,3.30
2022-09-25T06:42:41.472Z,2.40
2022-09-25T06:45:12.696Z,3.38
2022-09-25T06:47:42.362Z,2.95
2022-09-25T06:50:11.397Z,2.85
2022-09-25T06:52:41.745Z,3.13
2022-09-25T06:55:08.224Z,2.70
2022-09-25T06:57:39.038Z,2.88
2022-09-25T07:00:05.774Z,2.20
2022-09-25T07:02:50.781Z,2.35
2022-09-25T07:05:18.721Z,2.75
2022-09-25T07:07:46.374Z,2.20
2022-09-25T07:10:12.814Z,2.33
2022-09-25T07:12:41.392Z,2.72
2022-09-25T07:15:08.586Z,2.58
2022-09-25T07:17:35.048Z,2.72
2022-09-25T07:20:01.646Z,2.28
2022-09-25T07:22:28.917Z,2.20
2022-09-25T07:24:55.314Z,2.42
2022-09-25T07:27:21.717Z,2.30
2022-09-25T07:29:48.129Z,2.20
2022-09-25T07:32:14.527Z,2.67
2022-09-25T07:34:40.981Z,2.67
2022-09-25T07:37:07.827Z,1.98
2022-09-25T07:39:34.228Z,2.50
2022-09-25T07:42:00.576Z,2.10
2022-09-25T07:44:30.046Z,2.53
2022-09-25T07:47:01.499Z,2.42
2022-09-25T07:49:29.233Z,2.50
2022-09-25T07:51:55.673Z,2.03
2022-09-25T07:54:22.080Z,2.65
2022-09-25T07:56:48.488Z,2.55
2022-09-25T07:59:14.855Z,2.10
2022-09-25T08:01:44.948Z,2.47
2022-09-25T08:04:13.765Z,2.38
2022-09-25T08:06:40.209Z,2.25
2022-09-25T08:09:10.417Z,2.50
2022-09-25T08:11:38.046Z,2.13
2022-09-25T08:14:04.550Z,2.40
2022-09-25T08:16:30.994Z,2.10
2022-09-25T08:18:57.381Z,2.00
2022-09-25T08:21:24.311Z,1.98
2022-09-25T08:23:52.175Z,2.40
2022-09-25T08:26:19.271Z,2.25
2022-09-25T08:28:45.655Z,2.47
2022-09-25T08:31:14.451Z,2.00
2022-09-25T08:33:45.069Z,2.40
2022-09-25T08:36:11.449Z,2.58
2022-09-25T08:38:37.854Z,2.90
2022-09-25T08:41:07.878Z,2.38
2022-09-25T08:43:36.403Z,2.17
2022-09-25T08:46:23.397Z,2.28
2022-09-25T08:49:02.404Z,2.10
2022-09-25T08:51:49.364Z,1.92
2022-09-25T08:54:18.843Z,2.38
2022-09-25T08:56:45.797Z,2.10
2022-09-25T08:59:23.606Z,1.85
2022-09-25T09:01:53.425Z,2.15
2022-09-25T09:04:34.045Z,1.88
2022-09-25T09:07:28.136Z,1.77
2022-09-25T09:09:54.863Z,1.98
2022-09-25T09:12:27.636Z,2.03
2022-09-25T09:14:56.518Z,1.75
2022-09-25T09:17:25.719Z,2.13
2022-09-25T09:19:55.097Z,1.75
2022-09-25T09:22:27.033Z,1.85
2022-09-25T09:24:53.429Z,1.58
2022-09-25T09:27:19.786Z,1.42
2022-09-25T09:30:00.372Z,1.50
2022-09-25T09:32:49.769Z,1.60
2022-09-25T09:35:34.444Z,2.08
2022-09-25T09:38:10.437Z,1.48
2022-09-25T09:40:47.276Z,1.48
2022-09-25T09:43:13.847Z,1.50
2022-09-25T09:45:50.265Z,1.50
2022-09-25T09:48:22.975Z,1.60
2022-09-25T09:50:52.807Z,1.38
2022-09-25T09:53:32.403Z,1.15
2022-09-25T09:56:06.447Z,1.00
2022-09-25T09:58:44.119Z,1.20
2022-09-25T10:01:36.601Z,1.52
2022-09-25T10:04:20.212Z,1.73
2022-09-25T10:07:16.690Z,0.98
2022-09-25T10:09:43.238Z,1.45
2022-09-25T10:12:24.026Z,1.70
2022-09-25T10:14:50.913Z,1.38
2022-09-25T10:17:18.287Z,1.35
2022-09-25T10:19:53.785Z,1.45
2022-09-25T10:22:21.695Z,1.15
2022-09-25T10:24:51.451Z,1.42
2022-09-25T10:27:20.960Z,1.48
2022-09-25T10:29:49.153Z,1.45
2022-09-25T10:32:17.286Z,1.10
2022-09-25T10:34:51.867Z,1.27
2022-09-25T10:37:21.659Z,1.25
2022-09-25T10:40:00.434Z,1.20
2022-09-25T10:42:39.768Z,0.88
2022-09-25T10:45:25.139Z,1.27
2022-09-25T10:48:10.243Z,1.30
2022-09-25T10:50:39.660Z,1.10
2022-09-25T10:53:07.584Z,1.10
2022-09-25T10:55:36.620Z,1.35
2022-09-25T10:58:21.351Z,1.38
2022-09-25T11:00:51.798Z,1.13
2022-09-25T11:03:28.150Z,1.00
2022-09-25T11:06:18.643Z,1.00
2022-09-25T11:08:46.246Z,1.00
2022-09-25T11:11:14.083Z,1.23
2022-09-25T11:13:41.641Z,1.30
2022-09-25T11:16:10.177Z,1.05
2022-09-25T11:18:38.860Z,1.23
2022-09-25T11:21:06.512Z,1.38
2022-09-25T11:23:40.542Z,1.20
2022-09-25T11:26:10.786Z,1.20
2022-09-25T11:29:01.165Z,1.30
2022-09-25T11:31:27.576Z,1.20
2022-09-25T11:33:57.149Z,1.13
2022-09-25T11:36:35.311Z,1.33
2022-09-25T11:39:22.171Z,2.65
2022-09-25T11:41:51.700Z,2.67
2022-09-25T11:44:37.133Z,2.40
2022-09-25T11:47:11.497Z,2.72
2022-09-25T11:49:40.087Z,2.30
2022-09-25T11:52:06.604Z,1.90
2022-09-25T11:54:52.358Z,1.90
2022-09-25T11:57:21.950Z,1.95
2022-09-25T12:00:04.720Z,1.85
2022-09-25T12:02:40.951Z,1.35
2022-09-25T12:05:23.144Z,1.20
2022-09-25T12:07:59.780Z,1.60
2022-09-25T12:10:39.775Z,1.38
2022-09-25T12:13:15.653Z,1.60
2022-09-25T12:15:46.128Z,1.50
2022-09-25T12:18:18.638Z,1.80
2022-09-25T12:20:45.551Z,1.90
2022-09-25T12:23:32.430Z,1.95
2022-09-25T12:26:23.088Z,1.75
2022-09-25T12:29:06.216Z,1.65
2022-09-25T12:31:52.158Z,1.50
2022-09-25T12:34:34.940Z,1.48
2022-09-25T12:37:23.101Z,1.75
2022-09-25T12:39:56.864Z,1.70
2022-09-25T12:42:31.028Z,1.60
2022-09-25T12:45:00.401Z,1.70
2022-09-25T12:47:35.095Z,2.30
2022-09-25T12:50:19.620Z,1.67
2022-09-25T12:52:51.238Z,1.55
2022-09-25T12:55:22.805Z,1.92
2022-09-25T12:57:55.890Z,1.58
2022-09-25T13:00:24.106Z,1.38
2022-09-25T13:03:29.146Z,1.33
2022-09-25T13:06:06.295Z,1.15
2022-09-25T13:08:36.119Z,1.27
2022-09-25T13:11:13.120Z,1.50
2022-09-25T13:13:48.876Z,1.15
2022-09-25T13:16:16.769Z,1.13
2022-09-25T13:19:06.604Z,1.08
2022-09-25T13:21:36.670Z,1.38
2022-09-25T13:24:08.580Z,1.13
2022-09-25T13:26:44.060Z,1.40
2022-09-25T13:29:24.278Z,1.33
2022-09-25T13:31:51.678Z,1.20
2022-09-25T13:34:20.208Z,1.42
2022-09-25T13:36:47.827Z,1.33
2022-09-25T13:39:32.983Z,1.67
2022-09-25T13:42:07.581Z,1.40
2022-09-25T13:44:43.517Z,1.75
2022-09-25T13:47:25.147Z,1.50
2022-09-25T13:49:52.518Z,1.20
2022-09-25T13:52:29.056Z,1.10
2022-09-25T13:55:22.124Z,1.10
2022-09-25T13:57:58.315Z,0.90
2022-09-25T14:00:32.254Z,1.00
2022-09-25T14:03:03.007Z,1.27
2022-09-25T14:05:36.137Z,1.10
2022-09-25T14:08:13.950Z,1.00
2022-09-25T14:10:51.868Z,0.80
2022-09-25T14:13:23.609Z,0.98
2022-09-25T14:15:56.805Z,0.80
2022-09-25T14:18:39.083Z,0.93
2022-09-25T14:21:09.788Z,0.93
2022-09-25T14:23:47.745Z,0.77
2022-09-25T14:26:27.707Z,0.90
2022-09-25T14:28:55.227Z,1.00
2022-09-25T14:31:27.925Z,1.42
2022-09-25T14:33:57.388Z,1.20
2022-09-25T14:36:49.296Z,1.15
2022-09-25T14:39:26.526Z,1.10
2022-09-25T14:41:52.978Z,1.05
2022-09-25T14:44:38.216Z,0.75
2022-09-25T14:47:05.571Z,0.70
2022-09-25T14:49:37.621Z,0.75
2022-09-25T14:52:13.348Z,0.50
2022-09-25T14:54:42.945Z,0.77
2022-09-25T14:57:10.907Z,0.80
2022-09-25T14:59:42.095Z,1.08
2022-09-25T15:02:15.798Z,0.85
2022-09-25T15:04:42.318Z,0.80
2022-09-25T15:07:08.714Z,0.70
2022-09-25T15:09:37.495Z,0.77
2022-09-25T15:12:16.637Z,0.70
2022-09-25T15:15:01.604Z,0.77
2022-09-25T15:17:30.011Z,0.80
2022-09-25T15:19:59.015Z,0.82
2022-09-25T15:22:28.607Z,1.38
2022-09-25T15:24:58.284Z,0.90
2022-09-25T15:27:27.697Z,1.05
2022-09-25T15:29:54.726Z,0.80
2022-09-25T15:32:28.454Z,1.08
2022-09-25T15:35:17.347Z,0.73
2022-09-25T15:37:44.293Z,1.05
2022-09-25T15:40:17.343Z,0.65
2022-09-25T15:42:45.136Z,0.77
2022-09-25T15:45:31.602Z,0.65
2022-09-25T15:47:58.668Z,0.65
2022-09-25T15:50:26.941Z,0.60
2022-09-25T15:52:57.844Z,0.90
2022-09-25T15:55:24.418Z,0.77
2022-09-25T15:57:52.672Z,0.80
2022-09-25T16:00:44.218Z,0.70
2022-09-25T16:03:32.350Z,0.88
2022-09-25T16:06:01.688Z,0.73
2022-09-25T16:08:29.807Z,0.63
2022-09-25T16:11:05.917Z,0.70
2022-09-25T16:13:32.877Z,0.65
2022-09-25T16:15:59.648Z,1.05
2022-09-25T16:18:33.564Z,0.50
2022-09-25T16:21:12.030Z,0.90
2022-09-25T16:23:40.017Z,1.05
2022-09-25T16:26:14.131Z,0.88
2022-09-25T16:28:46.402Z,1.00
2022-09-25T16:31:12.926Z,0.70
2022-09-25T16:33:42.263Z,0.80
2022-09-25T16:36:17.673Z,0.90
2022-09-25T16:39:03.647Z,0.90
2022-09-25T16:41:30.423Z,1.05
2022-09-25T16:44:28.059Z,0.98
2022-09-25T16:46:57.609Z,0.88
2022-09-25T16:49:25.381Z,0.90
2022-09-25T16:51:52.595Z,0.90
2022-09-25T16:54:19.917Z,1.05
2022-09-25T16:56:48.007Z,0.80
2022-09-25T16:59:17.228Z,0.80
2022-09-25T17:01:44.570Z,0.70
2022-09-25T17:04:11.800Z,0.88
2022-09-25T17:06:40.768Z,0.95
2022-09-25T17:09:11.999Z,1.00
2022-09-25T17:11:39.675Z,0.90
2022-09-25T17:14:09.554Z,0.95
2022-09-25T17:16:36.072Z,0.75
2022-09-25T17:19:02.588Z,0.93
2022-09-25T17:21:29.075Z,1.02
2022-09-25T17:23:55.468Z,0.70
2022-09-25T17:26:23.306Z,0.77
2022-09-25T17:28:50.714Z,0.80
2022-09-25T17:31:21.980Z,0.77
2022-09-25T17:33:52.083Z,0.70
2022-09-25T17:36:18.547Z,0.65
2022-09-25T17:38:45.076Z,0.70
2022-09-25T17:41:17.484Z,0.90
2022-09-25T17:43:44.739Z,0.75
2022-09-25T17:46:11.524Z,1.25
2022-09-25T17:48:47.886Z,0.80
2022-09-25T17:51:20.341Z,0.63
2022-09-25T17:53:54.239Z,0.82
2022-09-25T17:56:23.337Z,0.95
2022-09-25T17:58:52.667Z,0.80
2022-09-25T18:01:23.801Z,0.88
2022-09-25T18:03:58.445Z,1.00
2022-09-25T18:06:35.909Z,0.98
2022-09-25T18:09:05.410Z,1.02
2022-09-25T18:11:32.447Z,0.93
2022-09-25T18:14:01.763Z,1.05
2022-09-25T18:16:32.021Z,1.00
2022-09-25T18:19:18.810Z,1.08
2022-09-25T18:22:03.944Z,1.52
2022-09-25T18:24:30.536Z,1.08
2022-09-25T18:26:58.261Z,1.27
2022-09-25T18:29:24.845Z,1.08
2022-09-25T18:31:51.748Z,1.17
2022-09-25T18:34:18.301Z,1.40
2022-09-25T18:36:45.340Z,1.40
2022-09-25T18:39:14.956Z,0.93
2022-09-25T18:41:45.487Z,0.98
2022-09-25T18:44:13.309Z,1.25
2022-09-25T18:46:40.347Z,1.23
2022-09-25T18:49:06.889Z,1.10
2022-09-25T18:51:33.979Z,1.20
2022-09-25T18:54:00.348Z,1.17
2022-09-25T18:56:28.312Z,1.13
2022-09-25T18:58:54.914Z,1.20
2022-09-25T19:01:21.717Z,1.20
2022-09-25T19:03:52.187Z,1.77
2022-09-25T19:06:18.744Z,1.20
2022-09-25T19:08:50.695Z,1.45
2022-09-25T19:11:17.121Z,1.35
2022-09-25T19:13:43.558Z,1.35
2022-09-25T19:16:10.155Z,1.10
2022-09-25T19:18:36.862Z,1.27
2022-09-25T19:21:03.868Z,1.35
2022-09-25T19:23:33.877Z,1.35
2022-09-25T19:26:02.623Z,1.70
2022-09-25T19:28:29.819Z,1.40
2022-09-25T19:31:00.392Z,1.90
2022-09-25T19:33:31.720Z,1.70
2022-09-25T19:36:05.819Z,2.00
2022-09-25T19:38:32.900Z,2.17
2022-09-25T19:40:59.858Z,1.90
2022-09-25T19:43:26.460Z,1.70
2022-09-25T19:45:54.159Z,2.20
2022-09-25T19:48:21.552Z,1.90
2022-09-25T19:50:47.982Z,2.30
2022-09-25T19:53:14.879Z,2.53
2022-09-25T19:55:41.903Z,2.80
2022-09-25T19:58:08.975Z,3.58
2022-09-25T20:00:39.622Z,3.50
2022-09-25T20:03:06.146Z,3.63
2022-09-25T20:05:37.183Z,3.85
2022-09-25T20:08:04.578Z,3.22
2022-09-25T20:10:31.157Z,2.60
2022-09-25T20:12:57.646Z,3.03
2022-09-25T20:15:24.045Z,2.70
2022-09-25T20:17:50.477Z,2.75
2022-09-25T20:20:16.976Z,2.38
2022-09-25T20:22:44.436Z,2.88
2022-09-25T20:25:11.099Z,2.33
2022-09-25T20:27:37.994Z,2.33
2022-09-25T20:30:05.837Z,2.40
2022-09-25T20:32:32.835Z,2.67
2022-09-25T20:34:59.550Z,2.50
2022-09-25T20:37:26.094Z,2.13
2022-09-25T20:39:52.525Z,2.80
2022-09-25T20:42:19.013Z,2.70
2022-09-25T20:44:45.525Z,2.92
2022-09-25T20:47:11.934Z,4.10
2022-09-25T20:49:39.295Z,4.03
2022-09-25T20:52:05.852Z,3.70
2022-09-25T20:54:32.547Z,3.67
2022-09-25T20:56:58.944Z,3.38
2022-09-25T20:59:25.390Z,2.67
2022-09-25T21:01:51.851Z,3.15
2022-09-25T21:04:18.429Z,3.25
2022-09-25T21:06:45.133Z,2.60
2022-09-25T21:09:18.357Z,2.50
2022-09-25T21:11:44.844Z,2.55
2022-09-25T21:14:13.985Z,2.38
2022-09-25T21:16:40.817Z,2.70
2022-09-25T21:19:07.361Z,2.63
2022-09-25T21:21:33.899Z,2.85
2022-09-25T21:24:02.250Z,2.72
2022-09-25T21:26:29.357Z,2.63
2022-09-25T21:28:56.724Z,2.80
2022-09-25T21:31:25.487Z,2.70
2022-09-25T21:33:53.029Z,2.65
2022-09-25T21:36:19.889Z,3.50
2022-09-25T21:38:46.325Z,3.20
2022-09-25T21:41:17.568Z,2.58
2022-09-25T21:43:44.262Z,2.78
2022-09-25T21:46:12.979Z,3.30
2022-09-25T21:48:40.501Z,2.90
2022-09-25T21:51:07.909Z,2.67
2022-09-25T21:53:34.419Z,3.20
2022-09-25T21:56:04.089Z,3.20
2022-09-25T21:58:30.992Z,2.92
2022-09-25T22:01:10.891Z,3.13
2022-09-25T22:03:38.745Z,3.33
2022-09-25T22:06:15.826Z,3.25
2022-09-25T22:08:44.348Z,2.70
2022-09-25T22:11:11.384Z,2.90
2022-09-25T22:13:39.074Z,2.63
2022-09-25T22:16:13.282Z,2.60
2022-09-25T22:18:41.371Z,2.78
2022-09-25T22:21:07.822Z,2.75
2022-09-25T22:23:34.500Z,3.08
2022-09-25T22:26:01.674Z,2.72
2022-09-25T22:28:28.288Z,2.90
2022-09-25T22:30:54.786Z,2.58
2022-09-25T22:33:21.222Z,2.78
2022-09-25T22:35:47.724Z,3.15
2022-09-25T22:38:14.128Z,2.88
2022-09-25T22:40:40.611Z,3.10
2022-09-25T22:43:07.118Z,3.38
2022-09-25T22:45:33.828Z,4.30
2022-09-25T22:48:00.741Z,3.45
2022-09-25T22:50:27.470Z,3.58
2022-09-25T22:52:58.568Z,2.90
2022-09-25T22:55:26.164Z,3.03
2022-09-25T22:57:52.680Z,3.13
2022-09-25T23:00:19.121Z,2.85
2022-09-25T23:02:45.588Z,3.00
2022-09-25T23:05:12.698Z,2.92
2022-09-25T23:07:39.178Z,2.83
2022-09-25T23:10:06.307Z,3.10
2022-09-25T23:12:32.848Z,3.35
2022-09-25T23:14:59.518Z,2.83
2022-09-25T23:17:26.460Z,3.10
2022-09-25T23:19:52.838Z,2.70
2022-09-25T23:22:19.838Z,3.05
2022-09-25T23:24:46.269Z,3.00
2022-09-25T23:27:12.704Z,3.05
2022-09-25T23:29:39.165Z,3.22
2022-09-25T23:32:08.053Z,3.25
2022-09-25T23:34:34.514Z,3.15
2022-09-25T23:37:00.953Z,2.80
2022-09-25T23:39:27.418Z,2.60
2022-09-25T23:41:53.791Z,2.90
2022-09-25T23:44:30.929Z,2.63
2022-09-25T23:46:57.376Z,3.30
2022-09-25T23:49:23.809Z,2.90
2022-09-25T23:51:50.208Z,3.00
2022-09-25T23:54:18.264Z,3.28
2022-09-25T23:56:44.699Z,3.30
2022-09-25T23:59:12.015Z,3.13
